Aérodrome :
LOGIN :

S'inscrire | Disclaimer

   EN    FR    IT 

 










Légende :    VFR   VFR Marginal   IFR   IFR Intensif   IFR Très Intensif
Visi : 
Plafond : 
>= 8 km
>= 3000ft
5 à 8 km
1000 à 3000 ft
1500m à 5 km
500 à 1000 ft
800 à 1500m
200 à 500 ft
< 800m
< 200 ft
Symboles :   Orages  Brouillard  Fortes neiges  Fortes précipitations  Vent > 20 kt
SIGMETs :   Divers  Orages  Givrage  Turbulence  Onde Orograph.  Cendres Volcan.






- Altitude de l'aérodrome : 436 ft
- Code IATA : ANG


LFBU - Angoulême Brie Champniers

DERNIER METAR :
  • 221130Z AUTO 02010KT CAVOK 05/M01 Q1028 NOSIG

METARs EXPIRÉS :
  • 221100Z AUTO 03009KT CAVOK 05/M02 Q1029 NOSIG
  • 221030Z AUTO 03010KT CAVOK 04/M02 Q1029 NOSIG
  • 221000Z AUTO 03011KT CAVOK 03/M02 Q1029 NOSIG
  • 220930Z AUTO 02010KT CAVOK 03/M02 Q1029 NOSIG
  • 220900Z AUTO 03010KT CAVOK 02/M02 Q1029 NOSIG

TAF TAF LFBU
Valide du 22 à 12h jusqu'au 23 à 12h UTC


221100Z 2212/2312 05010KT CAVOK
PROB40
TEMPO 2218/2220 4000 -RA



MET'MAP, la Météo Aéronautique d'un coup d'oeil ! - Copyright ORBIFLY Décembre 2007 - Disclaimer

ORBIFLY MET'MAP TEAM :

Programmation & Développement : Alexandra Zaïnal
Sur une idée originale de : Baudouin d'Aumeries
Assistance à la programmation : Marc-Olivier Méhu
Soutien technique & logistique : Manuel Goepfert

Contact : metmap@orbifly.com




SOURCES & CREDITS :

   NOAA